Time;durP1;ratioP1;P1;durP2;ratioP2;P2;SDS_P1;SDS_P2;PMS_P1;PMS_P2;Temp;Humidity;BMP_temperature;BMP_pressure;BME280_temperature;BME280_humidity;BME280_pressure;Samples;Min_cycle;Max_cycle;Signal;HPM_P1;HPM_P2
2022/11/07 00:00:09;;;;;;;5.95;1.90;;;;;;;15.04;54.97;100944.97;4953966;29;20027;-55
2022/11/07 00:02:35;;;;;;;12.88;2.40;;;;;;;14.98;54.99;100946.72;4949377;28;20066;-55
2022/11/07 00:05:02;;;;;;;7.18;1.73;;;;;;;15.03;55.40;100946.84;4949422;28;20028;-57
2022/11/07 00:07:28;;;;;;;15.20;2.53;;;;;;;14.93;55.10;100943.88;4953292;28;20038;-56
2022/11/07 00:09:55;;;;;;;11.02;2.25;;;;;;;14.84;55.97;100934.53;4967164;28;20551;-56
2022/11/07 00:12:21;;;;;;;8.80;1.83;;;;;;;14.84;56.21;100934.53;4952777;28;20031;-57
2022/11/07 00:14:47;;;;;;;8.13;1.95;;;;;;;14.86;56.81;100928.88;4953086;28;20027;-57
2022/11/07 00:17:13;;;;;;;7.78;2.17;;;;;;;14.79;57.68;100934.41;4952809;28;20547;-56
2022/11/07 00:19:39;;;;;;;12.48;2.97;;;;;;;14.73;58.76;100935.31;4953344;28;20031;-57
2022/11/07 00:22:06;;;;;;;12.07;2.20;;;;;;;14.76;58.68;100938.34;4953115;28;20039;-57
2022/11/07 00:24:32;;;;;;;10.18;2.42;;;;;;;14.73;59.58;100921.84;4953213;28;20055;-57
2022/11/07 00:26:58;;;;;;;9.65;2.15;;;;;;;14.61;60.03;100918.31;4952798;28;20118;-57
2022/11/07 00:29:24;;;;;;;8.95;2.03;;;;;;;14.65;61.14;100922.16;4952864;29;20210;-57
2022/11/07 00:31:51;;;;;;;7.55;2.08;;;;;;;14.63;60.58;100929.66;4953383;28;20059;-57
2022/11/07 00:34:17;;;;;;;7.90;1.92;;;;;;;14.27;64.47;100929.53;4952867;28;20037;-56
2022/11/07 00:36:44;;;;;;;10.25;2.13;;;;;;;14.34;65.61;100939.38;4952966;28;20547;-56
2022/11/07 00:39:10;;;;;;;4.82;1.92;;;;;;;14.04;67.85;100939.34;4952948;28;20043;-56
2022/11/07 00:41:37;;;;;;;8.60;1.92;;;;;;;13.87;68.74;100934.56;4953226;28;20512;-52
2022/11/07 00:44:04;;;;;;;9.85;2.00;;;;;;;13.71;71.08;100927.13;4952747;28;20038;-54
2022/11/07 00:46:30;;;;;;;15.30;2.97;;;;;;;13.70;72.64;100934.34;4952933;28;20061;-54
2022/11/07 00:48:56;;;;;;;8.27;2.00;;;;;;;13.43;74.08;100925.75;4952860;28;20198;-53
2022/11/07 00:51:26;;;;;;;7.88;2.40;;;;;;;13.44;74.51;100915.84;4953170;28;20135;-53
2022/11/07 00:53:52;;;;;;;8.55;1.95;;;;;;;13.40;74.67;100909.25;4950638;28;20112;-54
2022/11/07 00:56:21;;;;;;;10.35;2.05;;;;;;;13.33;75.78;100893.22;4952766;28;20600;-53
2022/11/07 00:58:47;;;;;;;10.05;2.13;;;;;;;13.37;75.68;100898.94;4953910;28;20058;-54
2022/11/07 01:01:16;;;;;;;11.75;2.70;;;;;;;13.39;76.80;100900.38;4955128;29;20554;-50
2022/11/07 01:06:30;;;;;;;7.75;2.50;;;;;;;13.30;78.02;100904.38;4951482;28;20106;-56
2022/11/07 01:08:56;;;;;;;4.88;1.55;;;;;;;13.24;78.06;100901.78;4956146;29;20085;-54
2022/11/07 01:11:24;;;;;;;6.43;1.70;;;;;;;13.12;78.26;100899.78;4955560;29;20035;-55
2022/11/07 01:13:57;;;;;;;9.48;2.15;;;;;;;13.25;77.84;100898.84;4955835;28;20078;-54
2022/11/07 01:16:24;;;;;;;9.02;1.90;;;;;;;13.28;77.75;100885.00;4955508;29;20039;-54
2022/11/07 01:18:50;;;;;;;7.40;1.80;;;;;;;13.29;76.98;100867.00;4955990;28;20027;-54
2022/11/07 01:21:18;;;;;;;11.85;3.70;;;;;;;13.13;76.96;100871.03;4979067;23;20054;-54
2022/11/07 01:23:44;;;;;;;8.25;3.88;;;;;;;13.18;76.81;100876.56;4993560;28;20038;-54
2022/11/07 01:26:12;;;;;;;7.32;2.00;;;;;;;13.04;77.35;100865.13;4987615;28;20118;-53
2022/11/07 01:28:38;;;;;;;7.68;2.08;;;;;;;13.03;77.52;100873.41;4994780;28;20033;-54
2022/11/07 01:31:10;;;;;;;9.68;2.40;;;;;;;12.89;77.58;100865.47;4980592;28;20058;-54
2022/11/07 01:33:38;;;;;;;8.70;2.17;;;;;;;12.73;77.92;100866.03;4974886;28;20031;-54
2022/11/07 01:36:07;;;;;;;14.95;2.60;;;;;;;12.66;78.44;100859.91;4983143;28;20471;-53
2022/11/07 01:38:47;;;;;;;13.13;2.25;;;;;;;12.76;78.51;100868.28;4993740;28;20031;-53
2022/11/07 01:41:20;;;;;;;12.00;2.63;;;;;;;12.74;78.90;100859.63;4994581;28;20034;-53
2022/11/07 01:44:07;;;;;;;7.50;2.55;;;;;;;12.76;78.87;100854.03;4994298;28;20018;-53
2022/11/07 01:46:39;;;;;;;9.23;2.20;;;;;;;12.89;78.25;100854.75;4984268;28;20042;-53
2022/11/07 01:49:22;;;;;;;7.07;1.98;;;;;;;12.78;78.71;100855.47;4976569;28;20035;-53
2022/11/07 01:52:08;;;;;;;7.15;2.78;;;;;;;12.93;78.16;100847.03;4984804;28;20030;-51
2022/11/07 01:54:37;;;;;;;5.68;3.17;;;;;;;12.88;78.05;100854.94;4970948;28;20114;-54
2022/11/07 01:57:08;;;;;;;11.43;3.17;;;;;;;12.90;77.71;100847.50;4973688;28;20479;-55
2022/11/07 01:59:37;;;;;;;7.40;3.97;;;;;;;12.71;78.54;100854.66;4975161;28;20055;-54
2022/11/07 02:02:04;;;;;;;12.65;2.90;;;;;;;12.79;78.21;100850.91;4975055;28;20031;-53
2022/11/07 02:04:31;;;;;;;9.15;3.97;;;;;;;12.69;77.36;100848.72;4974898;28;20058;-55
2022/11/07 02:07:30;;;;;;;12.63;7.03;;;;;;;12.82;76.67;100861.19;4971014;28;20070;-55
2022/11/07 02:09:56;;;;;;;10.63;5.10;;;;;;;12.78;76.31;100860.00;4943035;28;20126;-56
2022/11/07 02:12:25;;;;;;;9.10;3.15;;;;;;;12.68;76.85;100847.06;4968581;28;20023;-55
2022/11/07 02:14:51;;;;;;;14.65;4.93;;;;;;;12.66;76.86;100846.47;4974659;28;20023;-56
2022/11/07 02:17:18;;;;;;;12.05;7.07;;;;;;;12.82;76.06;100853.97;4974880;28;20019;-56
2022/11/07 02:19:49;;;;;;;15.85;5.85;;;;;;;12.75;76.15;100844.31;4974678;28;20030;-55
2022/11/07 02:22:18;;;;;;;15.65;8.10;;;;;;;12.75;76.26;100860.44;4974077;28;20050;-56
2022/11/07 02:24:50;;;;;;;17.85;8.55;;;;;;;12.76;75.89;100846.78;4973275;28;20045;-55
2022/11/07 02:27:19;;;;;;;11.38;5.05;;;;;;;12.81;75.33;100854.19;4965509;28;20041;-56
2022/11/07 02:29:49;;;;;;;16.10;6.25;;;;;;;12.69;75.61;100851.41;4976469;28;20022;-56
2022/11/07 02:32:15;;;;;;;12.20;4.20;;;;;;;12.69;75.47;100841.47;4974412;28;20031;-54
2022/11/07 02:34:41;;;;;;;13.70;5.25;;;;;;;12.79;75.29;100832.09;4974212;28;20518;-56
2022/11/07 02:37:23;;;;;;;12.55;4.30;;;;;;;12.82;75.10;100835.16;4974384;28;20040;-55
2022/11/07 02:39:49;;;;;;;8.98;2.97;;;;;;;12.77;75.11;100824.28;4974406;28;20146;-56
2022/11/07 02:42:16;;;;;;;12.90;4.80;;;;;;;12.76;74.58;100827.16;4974305;28;20471;-55
2022/11/07 02:44:43;;;;;;;10.60;4.55;;;;;;;12.80;74.31;100839.13;4973928;28;20033;-57
2022/11/07 02:47:09;;;;;;;12.23;5.05;;;;;;;12.78;73.92;100842.03;4973358;28;20031;-55
2022/11/07 02:49:35;;;;;;;11.68;4.65;;;;;;;12.96;72.51;100838.56;4973485;28;20459;-55
2022/11/07 02:52:04;;;;;;;12.02;5.22;;;;;;;12.78;72.13;100839.34;4974319;28;20027;-56
2022/11/07 02:54:30;;;;;;;13.02;3.13;;;;;;;12.77;72.47;100840.41;4973655;28;20031;-56
2022/11/07 02:56:57;;;;;;;10.10;2.80;;;;;;;12.75;72.06;100845.16;4973564;28;20062;-56
2022/11/07 02:59:26;;;;;;;10.70;2.90;;;;;;;12.57;71.87;100839.72;4964235;28;20034;-56
2022/11/07 03:01:52;;;;;;;10.45;3.70;;;;;;;12.65;71.48;100840.25;4959753;28;20085;-56
2022/11/07 03:04:19;;;;;;;7.88;2.70;;;;;;;12.59;70.99;100845.69;4953536;28;20038;-56
2022/11/07 03:06:45;;;;;;;9.48;2.50;;;;;;;12.63;71.48;100842.34;4954138;28;20031;-55
2022/11/07 03:09:11;;;;;;;7.25;2.33;;;;;;;12.71;71.24;100835.88;4954072;28;20027;-55
2022/11/07 03:11:37;;;;;;;10.05;2.75;;;;;;;12.83;71.01;100836.81;4954026;28;20027;-55
2022/11/07 03:14:04;;;;;;;9.20;2.33;;;;;;;12.59;71.35;100833.09;4958343;28;20031;-55
2022/11/07 03:16:30;;;;;;;12.02;2.42;;;;;;;12.61;71.83;100832.88;4970944;28;20027;-52
2022/11/07 03:18:56;;;;;;;10.45;2.50;;;;;;;12.64;71.36;100824.38;4959998;28;20059;-54
2022/11/07 03:21:22;;;;;;;9.68;2.00;;;;;;;12.51;71.36;100824.50;4970283;28;20058;-54
2022/11/07 03:23:48;;;;;;;8.35;1.92;;;;;;;12.62;71.23;100819.22;4970729;28;20479;-54
2022/11/07 03:26:15;;;;;;;9.05;1.92;;;;;;;12.68;70.86;100815.66;4974751;28;20039;-55
2022/11/07 03:28:41;;;;;;;10.23;2.55;;;;;;;12.53;71.19;100815.16;4971717;28;20428;-55
2022/11/07 03:31:07;;;;;;;11.23;2.92;;;;;;;12.72;71.43;100813.38;4971755;28;20026;-55
2022/11/07 03:33:33;;;;;;;9.15;2.70;;;;;;;12.66;70.74;100803.50;4971488;28;20035;-54
2022/11/07 03:36:00;;;;;;;7.30;2.25;;;;;;;12.76;71.22;100819.91;4972293;28;20440;-54
2022/11/07 03:38:26;;;;;;;9.05;2.20;;;;;;;12.75;71.89;100818.28;4972286;28;20039;-55
2022/11/07 03:40:52;;;;;;;10.40;2.50;;;;;;;12.83;71.44;100815.34;4974814;28;20026;-54
2022/11/07 03:43:18;;;;;;;10.70;2.40;;;;;;;12.87;71.44;100804.94;4973968;28;20023;-55
2022/11/07 03:45:44;;;;;;;9.55;2.10;;;;;;;12.89;71.76;100808.25;4989917;28;20034;-54
2022/11/07 03:48:11;;;;;;;15.63;3.05;;;;;;;12.78;72.04;100788.31;4977248;28;20023;-53
2022/11/07 03:50:37;;;;;;;6.07;2.10;;;;;;;12.83;72.46;100793.84;4972079;28;20539;-55
2022/11/07 03:53:03;;;;;;;7.90;2.17;;;;;;;12.82;72.83;100792.19;4970610;28;20069;-55
2022/11/07 03:55:29;;;;;;;7.38;2.30;;;;;;;12.73;72.94;100782.78;4972456;28;20096;-54
2022/11/07 03:57:55;;;;;;;6.35;2.30;;;;;;;12.69;72.83;100782.38;4971328;28;20034;-56
2022/11/07 04:00:22;;;;;;;7.22;2.75;;;;;;;12.68;72.87;100783.44;4971321;28;20027;-55
2022/11/07 04:02:48;;;;;;;8.25;2.40;;;;;;;12.67;73.08;100773.75;4969840;28;20038;-53
2022/11/07 04:05:15;;;;;;;12.57;2.65;;;;;;;12.44;74.49;100768.19;4972555;28;20038;-54
2022/11/07 04:07:41;;;;;;;7.38;2.13;;;;;;;12.49;74.59;100759.44;4972043;28;20034;-55
2022/11/07 04:10:07;;;;;;;10.02;2.13;;;;;;;12.55;75.03;100766.66;4973129;28;20038;-55
2022/11/07 04:18:02;;;;;;;17.30;3.03;;;;;;;12.64;74.13;100744.63;4971943;28;20038;-55
2022/11/07 04:20:29;;;;;;;12.70;3.17;;;;;;;12.62;74.36;100743.22;4957169;28;20066;-55
2022/11/07 04:22:55;;;;;;;9.98;2.50;;;;;;;12.58;73.82;100728.59;4971009;28;20039;-53
2022/11/07 04:27:41;;;;;;;10.15;2.10;;;;;;;12.51;73.23;100723.28;4971144;28;20030;-54
2022/11/07 04:28:07;;;;;;;12.45;2.60;;;;;;;12.54;73.46;100722.03;4970919;28;20058;-53
2022/11/07 04:30:34;;;;;;;9.10;3.13;;;;;;;12.55;72.92;100721.81;4970399;28;20027;-55
2022/11/07 04:33:01;;;;;;;9.80;3.03;;;;;;;12.63;72.71;100726.06;4971056;28;20468;-53
2022/11/07 04:35:30;;;;;;;10.98;2.70;;;;;;;12.63;72.99;100736.81;4975175;28;20391;-53
2022/11/07 04:37:56;;;;;;;14.07;2.75;;;;;;;12.57;73.46;100732.31;4975290;28;20106;-55
2022/11/07 04:40:23;;;;;;;10.57;2.58;;;;;;;12.66;73.44;100733.69;4974162;28;20530;-53
2022/11/07 04:42:49;;;;;;;8.68;2.22;;;;;;;12.59;73.87;100736.41;4975465;28;20133;-54
2022/11/07 04:45:17;;;;;;;8.40;2.10;;;;;;;12.58;74.17;100731.28;4973207;28;20031;-54
2022/11/07 04:47:44;;;;;;;7.13;2.38;;;;;;;12.60;74.20;100719.28;4974616;28;20513;-53
2022/11/07 04:50:13;;;;;;;15.75;2.55;;;;;;;12.67;73.87;100722.72;4976004;28;20031;-53
2022/11/07 04:52:39;;;;;;;6.55;2.13;;;;;;;12.58;74.24;100721.34;4974343;28;20416;-55
2022/11/07 04:55:08;;;;;;;10.30;2.05;;;;;;;12.62;74.21;100721.75;4974598;28;20042;-55
2022/11/07 04:57:34;;;;;;;6.63;2.35;;;;;;;12.60;74.16;100719.28;4973968;28;20483;-55
2022/11/07 05:00:01;;;;;;;11.95;2.65;;;;;;;12.56;74.43;100720.78;4974413;28;20151;-54
2022/11/07 05:02:27;;;;;;;12.10;1.83;;;;;;;12.59;74.16;100716.81;4973078;28;20420;-55
2022/11/07 05:04:53;;;;;;;8.55;2.13;;;;;;;12.52;74.68;100714.19;4973681;28;20038;-53
2022/11/07 05:07:20;;;;;;;7.18;2.50;;;;;;;12.54;74.72;100713.97;4972785;28;20106;-54
2022/11/07 05:09:46;;;;;;;6.40;2.22;;;;;;;12.52;74.99;100711.50;4974717;28;20038;-55
2022/11/07 05:12:12;;;;;;;7.88;2.78;;;;;;;12.55;74.99;100700.34;4974087;28;20062;-53
2022/11/07 05:14:38;;;;;;;8.95;2.38;;;;;;;12.54;75.45;100703.22;4970218;28;20023;-55
2022/11/07 05:17:05;;;;;;;10.23;2.47;;;;;;;12.54;75.64;100706.72;4974268;28;20039;-54
2022/11/07 05:19:31;;;;;;;9.93;2.08;;;;;;;12.56;75.76;100701.16;4975410;28;20082;-56
2022/11/07 05:24:41;;;;;;;11.05;2.35;;;;;;;12.55;75.81;100710.25;4974193;28;20057;-56
2022/11/07 05:27:17;;;;;;;7.13;2.22;;;;;;;12.56;76.46;100703.84;4974454;28;20031;-57
2022/11/07 05:29:43;;;;;;;9.65;2.05;;;;;;;12.64;76.31;100692.81;4973888;28;20387;-56
2022/11/07 05:32:09;;;;;;;11.65;2.15;;;;;;;12.72;75.85;100689.84;4974397;28;20065;-56
2022/11/07 05:34:36;;;;;;;5.90;1.98;;;;;;;12.72;75.45;100684.47;4974494;28;20391;-55
2022/11/07 05:37:02;;;;;;;12.10;1.95;;;;;;;12.77;74.91;100694.50;4974249;28;20132;-55
2022/11/07 05:39:28;;;;;;;10.60;2.28;;;;;;;12.81;74.56;100695.72;4974879;28;20030;-55
2022/11/07 05:41:54;;;;;;;6.45;1.83;;;;;;;12.79;73.99;100690.56;4973410;28;20023;-55
2022/11/07 05:44:21;;;;;;;3.50;1.55;;;;;;;12.77;73.89;100698.03;4971615;28;20039;-55
2022/11/07 05:46:47;;;;;;;9.77;2.20;;;;;;;12.79;73.88;100701.31;4973452;28;20161;-56
2022/11/07 05:49:13;;;;;;;12.10;1.50;;;;;;;12.88;73.83;100691.91;4974656;28;20042;-56
2022/11/07 05:51:40;;;;;;;7.03;1.70;;;;;;;12.88;73.47;100688.38;4973932;28;20504;-56
2022/11/07 05:54:06;;;;;;;11.40;2.13;;;;;;;12.96;73.27;100677.34;4969950;28;20460;-56
2022/11/07 05:56:32;;;;;;;9.48;2.30;;;;;;;12.84;73.86;100663.88;4974636;28;20038;-54
2022/11/07 05:58:58;;;;;;;6.00;1.70;;;;;;;12.80;74.04;100654.59;4971408;28;20031;-53
2022/11/07 06:01:25;;;;;;;7.22;1.75;;;;;;;12.89;74.11;100655.13;4973599;28;20038;-55
2022/11/07 06:03:51;;;;;;;10.13;1.80;;;;;;;13.01;73.89;100671.31;4973460;28;20393;-54
2022/11/07 06:06:17;;;;;;;7.68;1.67;;;;;;;13.04;73.36;100670.84;4971571;28;20038;-55
2022/11/07 06:08:43;;;;;;;7.85;1.77;;;;;;;13.00;73.10;100666.97;4972491;28;20034;-55
2022/11/07 06:11:10;;;;;;;9.38;2.05;;;;;;;12.96;73.36;100655.88;4973894;28;20318;-55
2022/11/07 06:13:36;;;;;;;7.50;1.70;;;;;;;12.75;74.15;100650.94;4973610;28;20387;-55
2022/11/07 06:16:02;;;;;;;8.52;1.73;;;;;;;12.78;74.23;100635.22;4973435;28;20035;-56
2022/11/07 06:18:29;;;;;;;4.20;1.23;;;;;;;12.92;73.81;100634.00;4973504;28;20034;-56
2022/11/07 06:20:55;;;;;;;5.45;1.48;;;;;;;12.90;73.97;100649.53;4996631;23;20046;-56
2022/11/07 06:23:21;;;;;;;8.48;1.50;;;;;;;13.06;74.51;100645.41;4974148;28;20078;-54
2022/11/07 06:25:50;;;;;;;11.45;2.25;;;;;;;13.05;76.15;100645.63;4973258;28;20061;-49
2022/11/07 06:28:16;;;;;;;4.53;1.40;;;;;;;12.92;77.98;100647.41;4967785;28;20023;-51
2022/11/07 06:30:43;;;;;;;12.15;2.17;;;;;;;12.75;79.87;100646.41;4971852;28;20118;-51
2022/11/07 06:33:18;;;;;;;7.43;1.50;;;;;;;12.75;80.85;100634.84;4951949;28;20115;-52
2022/11/07 06:35:45;;;;;;;10.88;1.58;;;;;;;12.72;81.67;100640.69;4955172;28;20027;-50
2022/11/07 06:38:13;;;;;;;6.57;1.70;;;;;;;12.76;81.78;100634.59;4973502;28;20038;-51
2022/11/07 06:40:41;;;;;;;7.47;1.85;;;;;;;12.79;81.69;100636.03;4969270;28;20022;-53
2022/11/07 06:43:16;;;;;;;9.00;2.15;;;;;;;12.63;83.44;100642.81;4972741;28;20026;-51
2022/11/07 06:45:43;;;;;;;12.43;2.22;;;;;;;12.64;84.61;100652.53;4973188;28;20033;-53
2022/11/07 06:48:12;;;;;;;14.20;1.98;;;;;;;12.71;84.63;100645.19;4959741;28;20566;-50
2022/11/07 06:50:38;;;;;;;11.40;1.75;;;;;;;12.58;85.38;100635.44;4954282;28;20027;-52
2022/11/07 06:53:07;;;;;;;8.25;1.83;;;;;;;12.63;85.84;100632.91;4961818;28;20105;-55
2022/11/07 06:55:35;;;;;;;10.35;1.90;;;;;;;12.55;86.81;100645.81;4972183;28;20050;-52
2022/11/07 06:58:02;;;;;;;9.35;1.80;;;;;;;12.66;86.46;100637.03;4973141;28;20031;-51
2022/11/07 07:00:31;;;;;;;5.88;1.88;;;;;;;12.64;86.36;100634.53;4965359;28;20039;-53
2022/11/07 07:02:57;;;;;;;6.55;1.83;;;;;;;12.65;86.58;100644.22;4966960;28;20109;-52
2022/11/07 07:05:23;;;;;;;5.85;1.60;;;;;;;12.58;87.33;100642.69;4964374;28;20031;-53
2022/11/07 07:07:49;;;;;;;8.25;1.73;;;;;;;12.63;87.34;100627.53;4971421;28;20386;-51
2022/11/07 07:10:16;;;;;;;7.40;2.10;;;;;;;12.64;87.47;100634.53;4973354;28;20026;-53
2022/11/07 07:12:43;;;;;;;9.23;1.88;;;;;;;12.74;87.49;100636.72;4972391;28;20019;-51
2022/11/07 07:15:09;;;;;;;8.10;2.08;;;;;;;12.64;88.06;100637.22;4972967;28;20023;-49
2022/11/07 07:17:35;;;;;;;6.85;2.10;;;;;;;12.61;88.80;100635.00;4972965;28;20027;-51
2022/11/07 07:20:03;;;;;;;12.90;2.00;;;;;;;12.71;89.10;100631.78;4971515;28;20031;-52
2022/11/07 07:22:33;;;;;;;7.10;1.55;;;;;;;12.78;88.81;100629.84;4961216;28;20055;-49
2022/11/07 07:24:59;;;;;;;5.95;1.80;;;;;;;12.86;88.30;100626.03;4967526;28;20105;-51
2022/11/07 07:27:26;;;;;;;9.60;1.75;;;;;;;12.92;88.20;100631.31;4972453;28;20046;-48
2022/11/07 07:29:52;;;;;;;3.75;1.52;;;;;;;12.93;87.63;100634.81;4972363;28;20501;-49
2022/11/07 07:32:19;;;;;;;5.82;1.40;;;;;;;13.02;87.79;100632.63;4971593;28;20038;-49
2022/11/07 07:34:46;;;;;;;3.63;1.08;;;;;;;13.07;87.02;100636.28;4972816;28;20037;-51
2022/11/07 07:37:12;;;;;;;8.70;1.60;;;;;;;13.13;86.35;100630.00;4971634;28;20038;-50
2022/11/07 07:39:38;;;;;;;4.07;1.20;;;;;;;13.19;86.58;100626.41;4953532;28;20031;-52
2022/11/07 07:42:04;;;;;;;8.35;1.50;;;;;;;13.29;86.27;100628.56;4967705;28;20034;-50
2022/11/07 07:44:30;;;;;;;8.25;1.67;;;;;;;13.27;86.36;100629.84;4970200;28;20105;-53
2022/11/07 07:46:57;;;;;;;9.13;1.90;;;;;;;13.28;86.60;100629.63;4969522;28;20038;-53
2022/11/07 07:49:23;;;;;;;6.35;1.65;;;;;;;13.25;87.41;100623.88;4970906;28;20968;-51
2022/11/07 07:51:49;;;;;;;6.00;1.42;;;;;;;13.34;86.85;100619.81;4972294;28;20088;-49
2022/11/07 07:54:15;;;;;;;9.82;1.90;;;;;;;13.31;87.41;100636.41;4972062;28;20031;-51
2022/11/07 07:56:42;;;;;;;5.15;1.63;;;;;;;13.32;86.80;100632.66;4971932;28;20080;-51
2022/11/07 07:59:08;;;;;;;7.13;1.65;;;;;;;13.28;87.27;100648.44;4971851;28;20046;-52
2022/11/07 08:01:34;;;;;;;6.35;1.60;;;;;;;13.29;87.36;100647.38;4957196;28;20031;-52
2022/11/07 08:04:00;;;;;;;5.25;1.60;;;;;;;13.28;87.64;100656.50;4972282;28;20034;-53
2022/11/07 08:06:26;;;;;;;5.97;1.33;;;;;;;13.29;86.93;100719.97;4971715;28;20037;-51
2022/11/07 08:08:53;;;;;;;6.40;0.95;;;;;;;12.69;78.47;100752.03;4972649;28;20026;-54
2022/11/07 08:11:19;;;;;;;3.70;0.98;;;;;;;12.03;79.70;100774.06;4957335;28;20023;-54
2022/11/07 08:13:45;;;;;;;5.57;1.05;;;;;;;11.57;79.51;100775.13;4970106;28;20039;-55
2022/11/07 08:16:11;;;;;;;1.80;0.30;;;;;;;11.23;80.59;100776.31;4974263;28;20030;-56
2022/11/07 08:18:40;;;;;;;2.53;0.73;;;;;;;11.03;79.13;100771.00;4960193;28;20486;-54
2022/11/07 08:21:07;;;;;;;1.77;0.38;;;;;;;10.71;80.21;100770.88;4968111;28;20141;-53
2022/11/07 08:23:34;;;;;;;2.58;0.68;;;;;;;10.55;80.10;100769.47;4957408;28;20042;-50
2022/11/07 08:26:03;;;;;;;4.93;0.52;;;;;;;10.46;81.47;100780.59;4971406;28;20042;-53
2022/11/07 08:28:32;;;;;;;1.10;0.40;;;;;;;10.48;81.93;100802.59;4976385;28;20027;-51
2022/11/07 08:31:07;;;;;;;2.50;0.70;;;;;;;10.54;79.50;100815.97;4976205;28;20484;-52
2022/11/07 08:33:34;;;;;;;2.47;0.63;;;;;;;10.47;81.73;100825.03;4976387;28;20031;-53
2022/11/07 08:36:01;;;;;;;1.08;0.50;;;;;;;10.45;82.00;100827.94;4976201;28;20053;-52
2022/11/07 08:38:30;;;;;;;2.65;0.55;;;;;;;10.65;81.78;100825.25;4957915;28;20027;-53
2022/11/07 08:40:56;;;;;;;2.70;0.40;;;;;;;10.71;80.20;100823.59;4961043;28;20041;-53
2022/11/07 08:43:23;;;;;;;2.50;0.40;;;;;;;10.63;79.37;100830.00;4976032;28;20081;-52
2022/11/07 08:45:49;;;;;;;1.75;0.40;;;;;;;10.69;80.08;100834.50;4975430;28;20106;-52
2022/11/07 08:48:16;;;;;;;3.60;0.38;;;;;;;10.63;79.13;100829.16;4974335;28;20077;-53
2022/11/07 08:50:43;;;;;;;0.65;0.30;;;;;;;10.62;79.94;100828.34;4956710;28;20503;-51
2022/11/07 08:53:09;;;;;;;2.15;0.40;;;;;;;10.58;79.99;100832.47;4968477;28;20038;-52
2022/11/07 08:55:36;;;;;;;2.10;0.38;;;;;;;10.59;79.39;100850.16;4974108;28;20109;-53
2022/11/07 08:58:04;;;;;;;2.03;0.40;;;;;;;10.71;79.61;100853.84;4974840;28;20105;-53
2022/11/07 09:00:31;;;;;;;2.45;0.50;;;;;;;10.68;79.05;100856.16;4973868;28;20031;-53
2022/11/07 09:03:04;;;;;;;1.67;0.30;;;;;;;10.81;77.52;100854.28;4974274;28;20026;-52
2022/11/07 09:05:30;;;;;;;2.97;0.50;;;;;;;10.77;77.49;100862.91;4972872;28;20035;-50
2022/11/07 09:07:56;;;;;;;4.82;0.45;;;;;;;10.73;78.21;100865.19;4974384;28;20399;-53
2022/11/07 09:10:23;;;;;;;2.03;0.50;;;;;;;10.90;78.03;100875.50;4974601;28;20023;-54
2022/11/07 09:12:49;;;;;;;3.47;0.50;;;;;;;10.74;77.66;100877.56;4974570;28;20073;-53
2022/11/07 09:15:17;;;;;;;1.98;0.50;;;;;;;10.70;76.97;100876.31;4960376;28;20403;-52
2022/11/07 09:17:45;;;;;;;2.95;0.40;;;;;;;10.70;77.57;100883.53;4974176;28;20069;-53
2022/11/07 09:20:13;;;;;;;3.95;0.90;;;;;;;10.46;79.29;100882.28;4973485;28;20030;-53
2022/11/07 09:22:39;;;;;;;2.60;0.70;;;;;;;10.43;78.87;100878.13;4959964;28;20042;-52
2022/11/07 09:25:06;;;;;;;1.73;0.57;;;;;;;10.67;77.96;100874.06;4972924;28;20027;-52
2022/11/07 09:27:32;;;;;;;6.03;1.08;;;;;;;10.79;77.45;100872.41;4973664;28;20106;-52
2022/11/07 09:29:59;;;;;;;2.47;1.15;;;;;;;10.72;77.12;100887.66;4972736;28;20392;-51
2022/11/07 09:32:25;;;;;;;1.63;0.65;;;;;;;10.74;77.99;100892.78;4974031;28;20030;-52
2022/11/07 09:34:51;;;;;;;0.80;0.47;;;;;;;10.81;79.53;100891.75;4974082;28;20062;-50
2022/11/07 09:37:19;;;;;;;2.38;0.73;;;;;;;10.55;81.39;100889.09;4972459;28;20664;-53
2022/11/07 09:39:46;;;;;;;3.60;0.70;;;;;;;10.63;81.64;100898.75;4973751;28;20559;-53
2022/11/07 09:42:51;;;;;;;2.70;0.60;;;;;;;10.73;81.21;100904.53;4972855;28;20034;-52
2022/11/07 09:45:17;;;;;;;3.92;0.75;;;;;;;10.89;81.02;100925.56;4972928;28;20117;-53
2022/11/07 09:47:50;;;;;;;4.50;0.77;;;;;;;10.93;80.84;100925.94;4972960;28;20026;-51
2022/11/07 09:50:37;;;;;;;3.83;0.60;;;;;;;10.89;81.13;100914.03;4963307;28;20424;-53
2022/11/07 09:53:24;;;;;;;2.28;0.60;;;;;;;11.17;79.82;100911.94;4963496;28;20506;-53
2022/11/07 09:55:54;;;;;;;3.15;0.55;;;;;;;11.16;79.95;100918.34;4972952;28;20042;-53
2022/11/07 09:58:29;;;;;;;3.40;0.60;;;;;;;11.32;79.37;100925.09;4965863;28;20039;-53
2022/11/07 10:01:02;;;;;;;0.98;0.50;;;;;;;11.36;78.56;100931.69;4970703;28;20157;-52
2022/11/07 10:03:29;;;;;;;2.28;0.68;;;;;;;11.17;79.04;100929.88;4973316;28;20031;-50
2022/11/07 10:06:01;;;;;;;3.38;0.68;;;;;;;11.29;78.47;100941.59;4956927;28;20448;-53
2022/11/07 10:08:52;;;;;;;2.90;0.93;;;;;;;11.16;78.40;100944.28;4968082;28;20042;-53
2022/11/07 10:11:24;;;;;;;3.20;0.68;;;;;;;11.03;79.40;100931.72;4972840;28;20031;-53
2022/11/07 10:14:39;;;;;;;3.58;0.65;;;;;;;10.97;80.70;100937.91;4973086;28;20118;-53
2022/11/07 10:17:45;;;;;;;2.08;0.65;;;;;;;10.89;80.46;100943.47;4928830;28;20183;-50
2022/11/07 10:20:14;;;;;;;6.35;0.90;;;;;;;11.04;79.91;100947.56;4972506;28;20101;-53
2022/11/07 10:22:44;;;;;;;6.30;0.70;;;;;;;11.31;79.51;100947.56;4960261;28;20042;-53
2022/11/07 10:25:29;;;;;;;3.72;0.73;;;;;;;11.27;79.40;100939.13;4971703;28;20115;-52
2022/11/07 10:28:07;;;;;;;3.20;0.70;;;;;;;11.26;79.29;100939.31;4973291;28;20097;-53
2022/11/07 10:30:34;;;;;;;2.47;0.82;;;;;;;11.12;80.04;100940.38;4973019;28;20031;-53
2022/11/07 10:33:06;;;;;;;1.52;0.60;;;;;;;11.22;78.25;100952.34;4955246;28;20031;-50
2022/11/07 10:35:38;;;;;;;2.58;0.80;;;;;;;11.30;78.16;100938.72;4967302;28;20034;-51
2022/11/07 10:38:39;;;;;;;3.83;0.50;;;;;;;10.83;80.44;100943.28;4972925;28;20034;-53
2022/11/07 10:41:26;;;;;;;1.70;0.50;;;;;;;11.14;79.27;100932.94;4943153;29;20035;-54
2022/11/07 10:43:56;;;;;;;3.33;0.55;;;;;;;11.16;78.86;100942.44;4968982;28;20034;-53
2022/11/07 10:46:32;;;;;;;3.75;0.90;;;;;;;10.91;80.21;100944.09;4973524;28;20039;-53
2022/11/07 10:49:01;;;;;;;5.20;0.77;;;;;;;11.00;79.93;100940.19;4972448;28;20479;-52
2022/11/07 10:51:39;;;;;;;3.30;0.82;;;;;;;11.31;78.00;100928.81;4973601;28;20115;-50
2022/11/07 10:54:17;;;;;;;3.40;0.85;;;;;;;11.22;77.99;100938.13;4971729;28;20560;-53
2022/11/07 10:56:50;;;;;;;3.13;0.90;;;;;;;10.98;79.11;100943.03;4972095;28;20030;-51
2022/11/07 10:59:27;;;;;;;7.22;0.88;;;;;;;11.04;79.21;100938.72;4972287;28;20031;-51
2022/11/07 11:01:56;;;;;;;3.55;0.88;;;;;;;11.16;79.00;100946.97;4972258;28;20387;-51
2022/11/07 11:04:31;;;;;;;3.05;0.93;;;;;;;10.95;78.03;100945.34;4972834;28;20555;-53
2022/11/07 11:07:04;;;;;;;;;;;;;;;11.03;78.45;100942.44;4972591;28;20490;-53
2022/11/07 11:09:33;;;;;;;4.63;1.20;;;;;;;11.12;78.25;100951.09;4972728;28;20298;-52
2022/11/07 11:12:11;;;;;;;3.53;0.93;;;;;;;10.77;78.55;100946.78;4971729;28;20026;-52
2022/11/07 11:14:38;;;;;;;7.00;1.27;;;;;;;10.83;78.21;100945.94;4970236;28;20031;-52
2022/11/07 11:17:05;;;;;;;6.30;1.17;;;;;;;10.87;78.23;100950.88;4956559;28;20042;-54
2022/11/07 11:19:48;;;;;;;6.55;1.17;;;;;;;10.98;77.03;100940.38;4972093;28;20034;-53
2022/11/07 11:22:21;;;;;;;3.03;0.82;;;;;;;10.70;77.49;100943.25;4956144;28;20042;-54
2022/11/07 11:25:16;;;;;;;3.50;1.02;;;;;;;10.49;78.31;100935.38;4972853;28;20027;-53
2022/11/07 11:27:44;;;;;;;2.25;0.90;;;;;;;10.50;78.41;100942.41;4960024;28;20137;-52
2022/11/07 11:30:20;;;;;;;5.22;0.85;;;;;;;10.52;78.22;100957.22;4970538;28;20287;-54
2022/11/07 11:32:50;;;;;;;2.10;0.65;;;;;;;10.59;77.54;100943.84;4971853;28;20195;-53
2022/11/07 11:35:35;;;;;;;5.95;0.93;;;;;;;10.77;76.23;100959.31;4971845;28;20085;-53
2022/11/07 11:38:32;;;;;;;4.80;1.35;;;;;;;10.36;77.64;100956.75;4971859;28;20031;-53
2022/11/07 11:41:09;;;;;;;4.00;0.93;;;;;;;10.65;76.23;100958.25;4968716;28;20052;-53
2022/11/07 11:43:50;;;;;;;3.97;0.88;;;;;;;10.54;76.28;100954.31;4970049;28;20049;-53